Terminal Aerodrome Forecast
Issued by NWS

Home | Current Version | Previous Version | Text Only | Print | Product List | Glossary On
Versions: 1 2 3 4 5 6 7 8 9 10 11 12
000
FTUS45 KCYS 041120
TAFAIA
TAF
KAIA 041120Z 0412/0512 27010G20KT P6SM SCT080
     FM041800 25013G24KT P6SM SCT100
     FM050200 23010KT P6SM BKN100=

USA.gov is the U.S. government's official web portal to all federal, state and local government web resources and services.